createdAt,value
2019-01-20T00:00:40.203Z,10.30
2019-01-20T00:03:08.542Z,10.00
2019-01-20T00:05:36.872Z,8.03
2019-01-20T00:08:05.832Z,8.27
2019-01-20T00:10:34.190Z,11.50
2019-01-20T00:13:02.611Z,11.93
2019-01-20T00:15:31.139Z,10.20
2019-01-20T00:18:00.053Z,7.53
2019-01-20T00:20:28.466Z,8.30
2019-01-20T00:22:56.911Z,10.77
2019-01-20T00:25:25.350Z,11.90
2019-01-20T00:27:53.678Z,8.97
2019-01-20T00:30:22.258Z,13.10
2019-01-20T00:32:50.610Z,10.67
2019-01-20T00:35:19.028Z,13.23
2019-01-20T00:37:47.409Z,9.70
2019-01-20T00:40:16.513Z,9.87
2019-01-20T00:42:45.299Z,12.70
2019-01-20T00:45:16.193Z,11.17
2019-01-20T00:47:44.627Z,10.10
2019-01-20T00:50:16.317Z,10.93
2019-01-20T00:52:44.813Z,7.47
2019-01-20T00:55:17.418Z,12.17
2019-01-20T00:57:45.916Z,9.50
2019-01-20T01:00:19.420Z,11.57
2019-01-20T01:02:48.109Z,9.00
2019-01-20T01:05:17.277Z,6.80
2019-01-20T01:07:46.135Z,8.37
2019-01-20T01:10:15.685Z,9.43
2019-01-20T01:12:44.195Z,8.03
2019-01-20T01:15:13.456Z,10.90
2019-01-20T01:17:41.879Z,9.40
2019-01-20T01:20:14.014Z,9.03
2019-01-20T01:22:42.521Z,8.70
2019-01-20T01:25:12.880Z,9.93
2019-01-20T01:27:41.754Z,7.40
2019-01-20T01:30:14.726Z,6.93
2019-01-20T01:32:43.181Z,7.47
2019-01-20T01:35:12.686Z,8.03
2019-01-20T01:37:41.089Z,6.75
2019-01-20T01:40:11.875Z,6.87
2019-01-20T01:42:40.270Z,8.23
2019-01-20T01:45:13.906Z,8.40
2019-01-20T01:47:42.241Z,10.23
2019-01-20T01:50:12.207Z,8.37
2019-01-20T01:52:40.517Z,10.47
2019-01-20T01:55:10.205Z,9.30
2019-01-20T01:57:38.519Z,7.23
2019-01-20T02:00:12.577Z,8.73
2019-01-20T02:02:40.928Z,12.20
2019-01-20T02:05:09.653Z,8.30
2019-01-20T02:07:38.102Z,6.53
2019-01-20T02:10:10.006Z,6.55
2019-01-20T02:12:38.417Z,8.57
2019-01-20T02:15:08.956Z,11.50
2019-01-20T02:17:37.289Z,10.60
2019-01-20T02:20:09.218Z,10.37
2019-01-20T02:22:37.582Z,6.08
2019-01-20T02:25:06.337Z,9.03
2019-01-20T02:27:35.730Z,14.10
2019-01-20T02:30:09.013Z,9.10
2019-01-20T02:32:37.627Z,10.03
2019-01-20T02:35:06.122Z,10.00
2019-01-20T02:37:34.460Z,7.10
2019-01-20T02:40:04.846Z,7.53
2019-01-20T02:42:33.165Z,7.62
2019-01-20T02:45:01.575Z,9.53
2019-01-20T02:47:29.890Z,8.10
2019-01-20T02:49:58.232Z,7.80
2019-01-20T02:52:26.557Z,8.93
2019-01-20T02:54:54.901Z,6.10
2019-01-20T02:57:23.250Z,7.08
2019-01-20T02:59:51.609Z,6.73
2019-01-20T03:02:20.036Z,7.93
2019-01-20T03:04:48.418Z,7.20
2019-01-20T03:07:16.737Z,11.00
2019-01-20T03:09:45.086Z,7.50
2019-01-20T03:12:13.568Z,8.70
2019-01-20T03:14:41.940Z,6.40
2019-01-20T03:17:10.721Z,9.00
2019-01-20T03:19:39.072Z,10.85
2019-01-20T03:22:07.413Z,20.13
2019-01-20T03:24:35.788Z,10.57
2019-01-20T03:27:04.292Z,8.28
2019-01-20T03:29:32.635Z,9.57
2019-01-20T03:32:00.967Z,7.83
2019-01-20T03:34:29.367Z,8.10
2019-01-20T03:36:58.806Z,11.68
2019-01-20T03:39:27.114Z,10.50
2019-01-20T03:41:55.548Z,10.20
2019-01-20T03:44:23.893Z,9.13
2019-01-20T03:46:52.268Z,8.10
2019-01-20T03:49:20.606Z,7.77
2019-01-20T03:51:49.009Z,8.87
2019-01-20T03:54:17.761Z,8.23
2019-01-20T03:56:46.110Z,7.47
2019-01-20T03:59:14.520Z,11.20
2019-01-20T04:01:42.895Z,9.40
2019-01-20T04:04:11.565Z,12.20
2019-01-20T04:06:39.894Z,9.47
2019-01-20T04:09:08.401Z,15.08
2019-01-20T04:11:36.792Z,7.20
2019-01-20T04:14:05.309Z,10.80
2019-01-20T04:16:33.680Z,7.93
2019-01-20T04:19:01.996Z,7.13
2019-01-20T04:21:30.338Z,9.60
2019-01-20T04:23:58.680Z,8.17
2019-01-20T04:26:27.022Z,9.37
2019-01-20T04:28:55.354Z,8.70
2019-01-20T04:31:23.728Z,8.90
2019-01-20T04:33:52.067Z,7.57
2019-01-20T04:36:20.473Z,9.63
2019-01-20T04:38:48.795Z,8.30
2019-01-20T04:41:17.125Z,8.30
2019-01-20T04:43:45.462Z,6.03
2019-01-20T04:46:13.794Z,9.80
2019-01-20T04:48:42.154Z,10.70
2019-01-20T04:51:11.110Z,11.53
2019-01-20T04:53:40.053Z,10.70
2019-01-20T04:56:08.460Z,11.00
2019-01-20T04:58:36.962Z,8.30
2019-01-20T05:01:05.280Z,8.97
2019-01-20T05:03:33.612Z,11.30
2019-01-20T05:06:01.999Z,11.13
2019-01-20T05:08:30.363Z,13.40
2019-01-20T05:10:58.711Z,11.85
2019-01-20T05:13:27.078Z,7.87
2019-01-20T05:15:55.440Z,9.70
2019-01-20T05:18:23.800Z,10.33
2019-01-20T05:20:52.154Z,8.90
2019-01-20T05:23:20.515Z,11.03
2019-01-20T05:25:48.841Z,11.33
2019-01-20T05:28:17.208Z,9.20
2019-01-20T05:30:45.526Z,6.70
2019-01-20T05:33:13.875Z,10.77
2019-01-20T05:35:42.211Z,8.05
2019-01-20T05:38:11.074Z,9.30
2019-01-20T05:40:39.425Z,9.30
2019-01-20T05:43:07.794Z,10.37
2019-01-20T05:45:36.266Z,9.30
2019-01-20T05:48:04.809Z,12.70
2019-01-20T05:50:33.156Z,9.05
2019-01-20T05:53:01.488Z,9.20
2019-01-20T05:55:29.834Z,5.90
2019-01-20T05:57:58.180Z,8.87
2019-01-20T06:00:28.220Z,11.43
2019-01-20T06:02:56.624Z,9.33
2019-01-20T06:05:24.959Z,11.30
2019-01-20T06:07:53.313Z,6.53
2019-01-20T06:10:21.750Z,10.87
2019-01-20T06:12:54.277Z,11.57
2019-01-20T06:15:22.142Z,7.13
2019-01-20T06:17:50.540Z,10.17
2019-01-20T06:20:18.937Z,9.77
2019-01-20T06:22:47.399Z,10.80
2019-01-20T06:25:15.767Z,7.27
2019-01-20T06:27:44.810Z,10.30
2019-01-20T06:30:18.713Z,10.47
2019-01-20T06:32:47.093Z,9.50
2019-01-20T06:35:15.510Z,12.03
2019-01-20T06:37:43.879Z,10.70
2019-01-20T06:40:13.569Z,11.65
2019-01-20T06:42:41.938Z,11.10
2019-01-20T06:45:13.639Z,8.80
2019-01-20T06:47:42.117Z,10.50
2019-01-20T06:50:12.713Z,10.40
2019-01-20T06:52:41.144Z,13.67
2019-01-20T06:55:11.465Z,11.30
2019-01-20T06:57:39.780Z,10.77
2019-01-20T07:00:13.068Z,8.57
2019-01-20T07:02:41.414Z,9.97
2019-01-20T07:05:10.324Z,9.43
2019-01-20T07:07:38.748Z,11.88
2019-01-20T07:10:10.852Z,11.23
2019-01-20T07:12:39.168Z,16.90
2019-01-20T07:15:11.415Z,19.27
2019-01-20T07:17:39.746Z,12.57
2019-01-20T07:20:09.864Z,9.87
2019-01-20T07:22:38.211Z,9.43
2019-01-20T07:25:09.852Z,10.60
2019-01-20T07:27:38.161Z,9.80
2019-01-20T07:30:09.059Z,9.07
2019-01-20T07:32:37.483Z,9.43
2019-01-20T07:35:08.516Z,8.65
2019-01-20T07:37:36.833Z,8.73
2019-01-20T07:40:09.277Z,10.65
2019-01-20T07:42:37.724Z,10.40
2019-01-20T07:45:10.677Z,9.93
2019-01-20T07:47:39.163Z,10.37
2019-01-20T07:50:12.756Z,9.70
2019-01-20T07:52:41.074Z,10.23
2019-01-20T07:55:09.946Z,8.73
2019-01-20T07:57:39.139Z,10.32
2019-01-20T08:00:12.712Z,12.90
2019-01-20T08:02:41.122Z,13.17
2019-01-20T08:05:10.850Z,11.70
2019-01-20T08:07:39.259Z,12.03
2019-01-20T08:10:11.374Z,8.87
2019-01-20T08:12:39.693Z,10.20
2019-01-20T08:15:10.160Z,12.20
2019-01-20T08:17:38.487Z,10.73
2019-01-20T08:20:10.475Z,11.65
2019-01-20T08:22:38.785Z,13.53
2019-01-20T08:25:10.119Z,9.93
2019-01-20T08:27:38.491Z,10.43
2019-01-20T08:30:10.539Z,14.23
2019-01-20T08:32:39.001Z,10.80
2019-01-20T08:35:09.234Z,11.50
2019-01-20T08:37:37.591Z,13.80
2019-01-20T08:40:11.183Z,9.43
2019-01-20T08:42:40.209Z,9.77
2019-01-20T08:45:15.217Z,13.67
2019-01-20T08:47:45.182Z,10.33
2019-01-20T08:50:14.151Z,12.90
2019-01-20T08:52:42.578Z,13.43
2019-01-20T08:55:11.348Z,11.57
2019-01-20T08:57:39.724Z,16.37
2019-01-20T09:00:12.669Z,12.70
2019-01-20T09:02:41.028Z,9.25
2019-01-20T09:05:10.753Z,17.50
2019-01-20T09:07:39.303Z,12.40
2019-01-20T09:10:11.235Z,11.67
2019-01-20T09:12:40.310Z,11.07
2019-01-20T09:15:08.863Z,9.40
2019-01-20T09:17:37.420Z,13.63
2019-01-20T09:20:10.071Z,8.73
2019-01-20T09:22:38.417Z,11.13
2019-01-20T09:25:10.120Z,11.65
2019-01-20T09:27:38.470Z,11.93
2019-01-20T09:30:15.326Z,12.57
2019-01-20T09:32:44.969Z,15.10
2019-01-20T09:35:13.550Z,14.97
2019-01-20T09:37:42.052Z,20.40
2019-01-20T09:40:12.111Z,14.47
2019-01-20T09:42:40.910Z,13.30
2019-01-20T09:45:15.553Z,12.97
2019-01-20T09:47:44.118Z,13.78
2019-01-20T09:50:12.597Z,17.45
2019-01-20T09:52:41.189Z,18.10
2019-01-20T09:55:11.422Z,14.67
2019-01-20T09:57:39.983Z,17.73
2019-01-20T10:00:12.658Z,21.85
2019-01-20T10:02:41.151Z,14.27
2019-01-20T10:05:10.649Z,19.27
2019-01-20T10:07:39.112Z,20.23
2019-01-20T10:10:11.791Z,17.42
2019-01-20T10:12:40.682Z,16.87
2019-01-20T10:15:12.927Z,16.40
2019-01-20T10:17:41.408Z,15.43
2019-01-20T10:20:15.614Z,14.90
2019-01-20T10:22:44.163Z,14.87
2019-01-20T10:25:15.124Z,18.13
2019-01-20T10:27:43.086Z,16.67
2019-01-20T10:30:13.578Z,18.53
2019-01-20T10:32:41.956Z,16.17
2019-01-20T10:35:11.094Z,17.23
2019-01-20T10:37:39.427Z,22.50
2019-01-20T10:40:08.575Z,16.20
2019-01-20T10:42:36.979Z,15.60
2019-01-20T10:45:09.576Z,17.33
2019-01-20T10:47:37.951Z,23.87
2019-01-20T10:50:11.005Z,26.00
2019-01-20T10:52:39.387Z,18.73
2019-01-20T10:55:08.629Z,18.33
2019-01-20T10:57:37.285Z,18.80
2019-01-20T11:00:11.293Z,19.80
2019-01-20T11:02:39.705Z,20.02
2019-01-20T11:05:09.862Z,18.87
2019-01-20T11:07:38.267Z,17.82
2019-01-20T11:10:10.438Z,18.17
2019-01-20T11:12:38.870Z,15.73
2019-01-20T11:15:11.226Z,15.07
2019-01-20T11:17:39.593Z,17.93
2019-01-20T11:20:11.510Z,14.68
2019-01-20T11:22:39.914Z,16.73
2019-01-20T11:25:10.266Z,14.00
2019-01-20T11:27:38.581Z,16.50
2019-01-20T11:30:10.302Z,18.12
2019-01-20T11:32:42.431Z,15.78
2019-01-20T11:35:14.840Z,16.63
2019-01-20T11:37:43.459Z,22.20
2019-01-20T11:40:13.430Z,18.95
2019-01-20T11:42:41.990Z,21.33
2019-01-20T11:45:17.698Z,15.38
2019-01-20T11:47:46.116Z,20.30
2019-01-20T11:50:15.280Z,21.27
2019-01-20T11:52:43.786Z,21.33
2019-01-20T11:55:15.671Z,17.82
2019-01-20T11:57:44.066Z,17.47
2019-01-20T12:00:15.885Z,22.13
2019-01-20T12:02:44.373Z,17.53
2019-01-20T12:05:13.461Z,15.63
2019-01-20T12:07:41.874Z,14.60
2019-01-20T12:10:11.223Z,18.70
2019-01-20T12:12:40.378Z,17.27
2019-01-20T12:15:11.968Z,20.68
2019-01-20T12:17:40.456Z,21.97
2019-01-20T12:20:11.168Z,17.67
2019-01-20T12:22:39.567Z,17.62
2019-01-20T12:25:13.503Z,19.07
2019-01-20T12:27:41.853Z,18.70
2019-01-20T12:30:14.506Z,16.43
2019-01-20T12:32:42.930Z,15.13
2019-01-20T12:35:11.625Z,18.80
2019-01-20T12:37:39.972Z,15.20
2019-01-20T12:40:12.811Z,15.43
2019-01-20T12:42:41.138Z,16.10
2019-01-20T12:45:10.030Z,16.45
2019-01-20T12:47:38.461Z,13.77
2019-01-20T12:50:10.120Z,14.50
2019-01-20T12:52:38.427Z,16.17
2019-01-20T12:55:07.855Z,19.57
2019-01-20T12:57:36.531Z,18.17
2019-01-20T13:00:09.862Z,19.73
2019-01-20T13:02:38.456Z,20.90
2019-01-20T13:05:07.617Z,15.47
2019-01-20T13:07:36.134Z,16.80
2019-01-20T13:10:08.408Z,15.47
2019-01-20T13:12:36.881Z,19.00
2019-01-20T13:15:09.034Z,20.63
2019-01-20T13:17:37.442Z,19.37
2019-01-20T13:20:09.925Z,17.00
2019-01-20T13:22:38.330Z,15.13
2019-01-20T13:25:08.721Z,22.60
2019-01-20T13:27:37.138Z,13.43
2019-01-20T13:30:08.385Z,17.37
2019-01-20T13:32:36.727Z,16.90
2019-01-20T13:35:08.660Z,16.70
2019-01-20T13:37:40.317Z,15.78
2019-01-20T13:40:16.038Z,15.17
2019-01-20T13:42:44.430Z,18.20
2019-01-20T13:45:13.309Z,19.63
2019-01-20T13:47:48.501Z,18.57
2019-01-20T13:50:15.868Z,18.33
2019-01-20T13:52:44.315Z,18.90
2019-01-20T13:55:14.268Z,13.83
2019-01-20T13:57:42.676Z,16.00
2019-01-20T14:00:14.518Z,15.97
2019-01-20T14:02:42.941Z,15.33
2019-01-20T14:05:11.393Z,17.20
2019-01-20T14:07:39.754Z,14.73
2019-01-20T14:10:12.457Z,14.30
2019-01-20T14:12:40.892Z,15.57
2019-01-20T14:15:11.864Z,15.27
2019-01-20T14:17:40.209Z,17.60
2019-01-20T14:20:12.066Z,17.97
2019-01-20T14:22:40.412Z,21.73
2019-01-20T14:25:10.611Z,16.60
2019-01-20T14:27:39.496Z,15.83
2019-01-20T14:30:11.399Z,18.30
2019-01-20T14:32:39.778Z,18.60
2019-01-20T14:35:09.412Z,20.77
2019-01-20T14:37:37.782Z,19.80
2019-01-20T14:40:10.308Z,14.57
2019-01-20T14:42:38.658Z,15.93
2019-01-20T14:45:10.168Z,17.70
2019-01-20T14:47:38.498Z,17.30
2019-01-20T14:50:09.679Z,23.43
2019-01-20T14:52:38.023Z,19.05
2019-01-20T14:55:09.341Z,15.00
2019-01-20T14:57:37.892Z,15.23
2019-01-20T15:00:21.330Z,18.05
2019-01-20T15:02:49.773Z,18.33
2019-01-20T15:05:18.279Z,16.10
2019-01-20T15:07:46.686Z,16.05
2019-01-20T15:10:15.985Z,18.23
2019-01-20T15:12:44.382Z,15.43
2019-01-20T15:15:17.185Z,15.17
2019-01-20T15:17:45.645Z,14.83
2019-01-20T15:20:14.665Z,22.07
2019-01-20T15:22:43.068Z,15.97
2019-01-20T15:25:14.153Z,16.33
2019-01-20T15:27:42.622Z,20.90
2019-01-20T15:30:16.093Z,15.93
2019-01-20T15:32:44.527Z,16.27
2019-01-20T15:35:13.042Z,15.40
2019-01-20T15:37:41.383Z,16.37
2019-01-20T15:40:13.974Z,18.00
2019-01-20T15:42:43.080Z,16.02
2019-01-20T15:45:16.494Z,17.13
2019-01-20T15:47:44.864Z,16.20
2019-01-20T15:50:16.777Z,15.00
2019-01-20T15:52:45.211Z,18.40
2019-01-20T15:55:13.909Z,22.43
2019-01-20T15:57:42.212Z,22.95
2019-01-20T16:00:15.700Z,15.83
2019-01-20T16:02:44.094Z,17.60
2019-01-20T16:05:12.554Z,22.60
2019-01-20T16:07:40.915Z,19.57
2019-01-20T16:10:12.015Z,21.50
2019-01-20T16:12:40.518Z,20.50
2019-01-20T16:15:13.653Z,21.15
2019-01-20T16:17:42.369Z,23.50
2019-01-20T16:20:14.902Z,20.80
2019-01-20T16:22:43.372Z,17.90
2019-01-20T16:25:15.802Z,18.80
2019-01-20T16:27:44.200Z,19.20
2019-01-20T16:30:16.363Z,18.30
2019-01-20T16:32:44.714Z,23.40
2019-01-20T16:35:13.512Z,21.00
2019-01-20T16:37:41.907Z,21.10
2019-01-20T16:40:14.795Z,20.40
2019-01-20T16:42:43.142Z,19.70
2019-01-20T16:45:15.218Z,19.93
2019-01-20T16:47:43.677Z,22.30
2019-01-20T16:50:16.523Z,23.83
2019-01-20T16:52:45.237Z,20.43
2019-01-20T16:55:14.982Z,20.43
2019-01-20T16:58:09.516Z,25.08
2019-01-20T17:00:39.994Z,22.80
2019-01-20T17:03:08.409Z,20.40
2019-01-20T17:05:37.017Z,19.80
2019-01-20T17:08:05.581Z,21.10
2019-01-20T17:10:36.362Z,21.50
2019-01-20T17:13:05.130Z,20.20
2019-01-20T17:15:39.873Z,21.70
2019-01-20T17:18:08.137Z,20.33
2019-01-20T17:20:36.537Z,22.13
2019-01-20T17:23:04.964Z,19.40
2019-01-20T17:25:33.370Z,20.43
2019-01-20T17:28:01.777Z,20.47
2019-01-20T17:30:34.017Z,23.20
2019-01-20T17:33:02.747Z,19.50
2019-01-20T17:35:31.097Z,21.93
2019-01-20T17:37:59.566Z,17.83
2019-01-20T17:40:28.862Z,20.90
2019-01-20T17:42:57.290Z,20.77
2019-01-20T17:45:27.538Z,26.17
2019-01-20T17:47:55.953Z,19.60
2019-01-20T17:50:27.133Z,22.70
2019-01-20T17:52:55.587Z,20.53
2019-01-20T17:55:24.009Z,23.50
2019-01-20T17:57:52.433Z,22.07
2019-01-20T18:00:24.260Z,22.73
2019-01-20T18:02:52.710Z,27.33
2019-01-20T18:05:24.597Z,23.60
2019-01-20T18:07:53.091Z,22.02
2019-01-20T18:10:21.591Z,20.00
2019-01-20T18:12:50.002Z,23.02
2019-01-20T18:15:21.199Z,20.17
2019-01-20T18:17:49.631Z,19.13
2019-01-20T18:20:20.310Z,24.67
2019-01-20T18:22:48.747Z,28.10
2019-01-20T18:25:18.294Z,20.97
2019-01-20T18:27:46.678Z,21.10
2019-01-20T18:30:16.761Z,20.93
2019-01-20T18:32:45.171Z,18.33
2019-01-20T18:35:14.557Z,18.92
2019-01-20T18:37:43.812Z,19.90
2019-01-20T18:40:14.910Z,19.67
2019-01-20T18:42:43.521Z,26.45
2019-01-20T18:45:14.549Z,20.80
2019-01-20T18:47:43.607Z,24.15
2019-01-20T18:50:15.408Z,20.40
2019-01-20T18:52:43.841Z,21.60
2019-01-20T18:55:15.095Z,22.80
2019-01-20T18:57:44.867Z,23.12
2019-01-20T19:00:16.954Z,22.47
2019-01-20T19:02:45.298Z,20.63
2019-01-20T19:05:17.193Z,20.20
2019-01-20T19:07:45.709Z,23.18
2019-01-20T19:10:15.713Z,27.10
2019-01-20T19:12:44.181Z,21.33
2019-01-20T19:15:16.076Z,25.00
2019-01-20T19:17:44.479Z,31.67
2019-01-20T19:20:14.363Z,23.70
2019-01-20T19:22:42.751Z,24.05
2019-01-20T19:25:13.137Z,25.90
2019-01-20T19:27:41.514Z,21.63
2019-01-20T19:30:14.807Z,25.27
2019-01-20T19:32:43.144Z,22.80
2019-01-20T19:35:12.359Z,26.77
2019-01-20T19:37:40.686Z,28.20
2019-01-20T19:40:12.228Z,25.80
2019-01-20T19:42:40.786Z,28.77
2019-01-20T19:45:12.367Z,23.60
2019-01-20T19:47:40.756Z,22.90
2019-01-20T19:50:11.739Z,25.07
2019-01-20T19:52:40.328Z,34.33
2019-01-20T19:55:11.630Z,22.65
2019-01-20T19:57:40.095Z,22.43
2019-01-20T20:00:12.788Z,27.07
2019-01-20T20:02:41.228Z,25.43
2019-01-20T20:05:13.451Z,22.03
2019-01-20T20:07:41.873Z,22.47
2019-01-20T20:10:15.010Z,24.13
2019-01-20T20:12:43.365Z,26.20
2019-01-20T20:15:15.630Z,26.00
2019-01-20T20:17:44.000Z,25.03
2019-01-20T20:20:15.465Z,25.93
2019-01-20T20:22:43.888Z,25.00
2019-01-20T20:25:14.850Z,25.43
2019-01-20T20:27:43.470Z,28.67
2019-01-20T20:30:15.027Z,27.37
2019-01-20T20:32:43.542Z,27.37
2019-01-20T20:35:13.114Z,28.80
2019-01-20T20:37:41.573Z,26.57
2019-01-20T20:40:12.957Z,26.02
2019-01-20T20:42:41.394Z,23.90
2019-01-20T20:45:11.753Z,23.83
2019-01-20T20:47:40.160Z,25.62
2019-01-20T20:50:11.863Z,24.07
2019-01-20T20:52:45.909Z,26.77
2019-01-20T20:55:11.296Z,23.03
2019-01-20T20:57:39.633Z,32.60
2019-01-20T21:00:12.988Z,25.88
2019-01-20T21:02:41.394Z,24.27
2019-01-20T21:05:10.049Z,25.37
2019-01-20T21:07:38.457Z,26.20
2019-01-20T21:10:12.621Z,24.43
2019-01-20T21:12:40.956Z,22.90
2019-01-20T21:15:12.359Z,23.53
2019-01-20T21:17:47.919Z,28.87
2019-01-20T21:20:13.843Z,25.67
2019-01-20T21:22:42.178Z,24.47
2019-01-20T21:25:11.931Z,25.33
2019-01-20T21:27:40.338Z,25.57
2019-01-20T21:30:17.708Z,22.93
2019-01-20T21:32:46.037Z,24.47
2019-01-20T21:35:15.716Z,25.93
2019-01-20T21:37:44.083Z,23.30
2019-01-20T21:40:15.499Z,25.00
2019-01-20T21:42:43.925Z,20.70
2019-01-20T21:45:14.533Z,20.93
2019-01-20T21:47:42.962Z,22.87
2019-01-20T21:50:18.180Z,21.97
2019-01-20T21:52:46.755Z,21.80
2019-01-20T21:55:15.464Z,25.00
2019-01-20T21:57:43.943Z,22.77
2019-01-20T22:00:16.327Z,24.45
2019-01-20T22:02:44.859Z,20.87
2019-01-20T22:05:13.915Z,23.60
2019-01-20T22:07:42.518Z,20.93
2019-01-20T22:10:14.082Z,21.53
2019-01-20T22:12:42.611Z,23.10
2019-01-20T22:15:12.027Z,20.03
2019-01-20T22:17:40.537Z,23.37
2019-01-20T22:20:12.608Z,22.45
2019-01-20T22:22:41.377Z,21.30
2019-01-20T22:25:10.750Z,19.60
2019-01-20T22:27:39.357Z,21.40
2019-01-20T22:30:11.185Z,25.43
2019-01-20T22:32:39.556Z,24.00
2019-01-20T22:35:10.925Z,24.20
2019-01-20T22:37:39.434Z,22.87
2019-01-20T22:40:09.806Z,22.90
2019-01-20T22:42:38.337Z,18.43
2019-01-20T22:45:11.348Z,18.33
2019-01-20T22:47:39.663Z,23.92
2019-01-20T22:50:12.514Z,19.33
2019-01-20T22:52:41.171Z,22.27
2019-01-20T22:55:11.673Z,18.83
2019-01-20T22:57:41.285Z,18.75
2019-01-20T23:00:13.214Z,23.65
2019-01-20T23:02:42.322Z,21.40
2019-01-20T23:05:11.305Z,19.13
2019-01-20T23:07:40.145Z,24.00
2019-01-20T23:10:08.946Z,19.50
2019-01-20T23:12:38.410Z,21.23
2019-01-20T23:15:09.831Z,17.90
2019-01-20T23:17:38.137Z,18.10
2019-01-20T23:20:11.943Z,21.40
2019-01-20T23:22:41.434Z,21.17
2019-01-20T23:25:10.457Z,22.43
2019-01-20T23:27:38.838Z,19.00
2019-01-20T23:30:11.428Z,21.57
2019-01-20T23:32:40.270Z,19.40
2019-01-20T23:35:08.782Z,22.20
2019-01-20T23:37:37.182Z,19.53
2019-01-20T23:40:10.177Z,21.77
2019-01-20T23:42:38.521Z,21.13
2019-01-20T23:45:10.144Z,20.17
2019-01-20T23:47:38.619Z,18.50
2019-01-20T23:50:09.424Z,20.20
2019-01-20T23:52:37.867Z,20.17
2019-01-20T23:55:07.770Z,21.17
2019-01-20T23:57:36.130Z,20.73
